Time;durP1;ratioP1;P1;durP2;ratioP2;P2;SDS_P1;SDS_P2;PMS_P1;PMS_P2;Temp;Humidity;BMP_temperature;BMP_pressure;BME280_temperature;BME280_humidity;BME280_pressure;Samples;Min_cycle;Max_cycle;Signal;HPM_P1;HPM_P2
2022/05/26 00:00:37;;;;;;;0.62;0.20;;;18.10;42.60;;;;;;2555374;53;20975;-85
2022/05/26 00:03:04;;;;;;;0.80;0.28;;;18.20;42.70;;;;;;2315062;54;21637;-87
2022/05/26 00:05:30;;;;;;;0.82;0.30;;;18.10;42.70;;;;;;2314223;54;22089;-85
2022/05/26 00:07:56;;;;;;;1.05;0.30;;;18.10;42.80;;;;;;2552875;53;21020;-87
2022/05/26 00:13:42;;;;;;;0.88;0.20;;;18.10;42.80;;;;;;2314021;54;20941;-86
2022/05/26 00:16:30;;;;;;;1.27;0.35;;;17.90;42.80;;;;;;2552674;53;20937;-86
2022/05/26 00:19:13;;;;;;;0.55;0.28;;;18.10;42.90;;;;;;2481096;53;21050;-86
2022/05/26 00:21:47;;;;;;;0.73;0.30;;;18.10;42.80;;;;;;2519549;54;20949;-86
2022/05/26 00:24:13;;;;;;;1.67;0.35;;;18.00;42.80;;;;;;2520204;54;20915;-86
2022/05/26 00:26:39;;;;;;;0.75;0.20;;;18.00;42.80;;;;;;2520796;54;21002;-86
2022/05/26 00:29:06;;;;;;;1.83;0.30;;;18.00;42.90;;;;;;2520246;54;21093;-86
2022/05/26 00:31:32;;;;;;;1.67;0.30;;;18.00;43.00;;;;;;2519396;54;20918;-85
2022/05/26 00:33:58;;;;;;;2.12;0.20;;;17.90;43.00;;;;;;2291230;55;20954;-85
2022/05/26 00:36:42;;;;;;;1.40;0.35;;;17.90;43.10;;;;;;2520883;54;21525;-86
2022/05/26 00:39:11;;;;;;;1.17;0.30;;;17.80;43.10;;;;;;2520778;54;21432;-86
2022/05/26 00:41:39;;;;;;;0.55;0.30;;;17.90;43.30;;;;;;2287863;55;20926;-86
2022/05/26 00:44:05;;;;;;;0.40;0.20;;;17.80;43.20;;;;;;2521008;54;21471;-86
2022/05/26 00:46:40;;;;;;;0.60;0.30;;;17.80;43.30;;;;;;2520926;54;21337;-86
2022/05/26 00:49:09;;;;;;;0.80;0.30;;;17.80;43.40;;;;;;2287244;55;21554;-86
2022/05/26 00:51:36;;;;;;;1.00;0.22;;;17.70;43.40;;;;;;2521110;54;20915;-86
2022/05/26 00:54:12;;;;;;;0.75;0.28;;;17.70;43.40;;;;;;2521615;54;20978;-85
2022/05/26 00:56:47;;;;;;;0.98;0.28;;;17.70;43.50;;;;;;2289186;55;20974;-86
2022/05/26 00:59:36;;;;;;;0.50;0.30;;;17.70;43.70;;;;;;2288544;55;21014;-86
2022/05/26 01:02:02;;;;;;;0.32;0.20;;;17.60;43.60;;;;;;2291044;55;21045;-84
2022/05/26 01:04:33;;;;;;;0.50;0.30;;;17.50;43.50;;;;;;2290467;55;20990;-86
2022/05/26 01:07:18;;;;;;;1.85;0.30;;;17.60;43.70;;;;;;2287232;55;20993;-86
2022/05/26 01:09:44;;;;;;;0.82;0.30;;;17.50;44.00;;;;;;2519628;54;21009;-86
2022/05/26 01:12:11;;;;;;;0.75;0.30;;;17.50;43.80;;;;;;2287552;55;21027;-85
2022/05/26 01:14:42;;;;;;;0.82;0.30;;;17.40;43.80;;;;;;2287700;55;20982;-84
2022/05/26 01:18:51;;;;;;;1.37;0.40;;;17.40;44.00;;;;;;2519319;54;21075;-85
2022/05/26 01:21:54;;;;;;;0.70;0.22;;;17.40;44.20;;;;;;2286369;55;21485;-84
2022/05/26 01:26:01;;;;;;;0.90;0.20;;;17.40;44.50;;;;;;2519899;54;21113;-84
2022/05/26 01:29:10;;;;;;;0.47;0.20;;;17.30;44.20;;;;;;2520347;54;20980;-84
2022/05/26 01:31:50;;;;;;;0.43;0.20;;;17.30;44.20;;;;;;2291849;55;20934;-85
2022/05/26 01:34:44;;;;;;;0.62;0.20;;;17.30;44.00;;;;;;2287670;55;20986;-85
2022/05/26 01:37:26;;;;;;;0.37;0.20;;;17.20;44.50;;;;;;2287509;55;20958;-84
2022/05/26 01:40:12;;;;;;;1.45;0.35;;;17.20;44.30;;;;;;2288333;55;20942;-86
2022/05/26 01:46:01;;;;;;;0.65;0.30;;;17.10;44.40;;;;;;2287599;55;20930;-85
2022/05/26 01:48:53;;;;;;;2.28;0.30;;;17.10;44.70;;;;;;2519812;54;20938;-84
2022/05/26 01:51:33;;;;;;;0.45;0.30;;;17.10;44.50;;;;;;2521644;54;20978;-85
2022/05/26 02:00:48;;;;;;;0.65;0.20;;;17.10;44.50;;;;;;2520818;54;20974;-85
2022/05/26 02:03:16;;;;;;;0.57;0.30;;;17.00;44.30;;;;;;2521903;54;21464;-84
2022/05/26 02:06:05;;;;;;;0.73;0.15;;;17.00;44.10;;;;;;2521654;54;21905;-85
2022/05/26 02:08:34;;;;;;;1.92;0.40;;;16.90;44.40;;;;;;2520178;54;20986;-84
2022/05/26 02:11:17;;;;;;;0.40;0.20;;;16.90;44.40;;;;;;2521137;54;20934;-85
2022/05/26 02:14:00;;;;;;;;;;;16.90;45.00;;;;;;2525556;55;20918;-84
2022/05/26 02:17:02;;;;;;;0.35;0.22;;;16.90;44.90;;;;;;2521496;54;20746;-85
2022/05/26 02:19:33;;;;;;;1.00;0.40;;;16.90;45.10;;;;;;2522712;54;20942;-85
2022/05/26 02:24:52;;;;;;;1.87;0.43;;;16.90;44.80;;;;;;2290163;55;20997;-85
2022/05/26 02:27:18;;;;;;;2.12;0.40;;;16.90;45.30;;;;;;2288976;55;20997;-84
2022/05/26 02:29:53;;;;;;;0.82;0.35;;;16.90;44.80;;;;;;2289323;55;20906;-85
2022/05/26 02:32:21;;;;;;;1.10;0.30;;;16.90;45.00;;;;;;2522332;54;20971;-85
2022/05/26 02:34:49;;;;;;;1.52;0.40;;;16.90;45.20;;;;;;2290030;55;21034;-85
2022/05/26 02:37:16;;;;;;;0.93;0.30;;;17.00;45.70;;;;;;2522895;54;20958;-85
2022/05/26 02:39:42;;;;;;;1.73;0.60;;;17.00;45.50;;;;;;2289698;55;20967;-85
2022/05/26 02:42:08;;;;;;;0.88;0.28;;;17.00;45.60;;;;;;2289495;55;20990;-85
2022/05/26 02:44:36;;;;;;;0.60;0.30;;;17.00;45.60;;;;;;2521688;54;20981;-85
2022/05/26 02:47:15;;;;;;;2.30;0.40;;;17.10;45.70;;;;;;2288678;55;21850;-85
2022/05/26 02:49:54;;;;;;;1.12;0.25;;;17.10;45.90;;;;;;2521529;54;20910;-84
2022/05/26 02:52:45;;;;;;;0.30;0.13;;;17.10;45.80;;;;;;2521462;54;20978;-84
2022/05/26 02:58:07;;;;;;;0.90;0.30;;;17.10;45.90;;;;;;2520198;54;21515;-84
2022/05/26 03:05:58;;;;;;;1.25;0.30;;;17.20;46.10;;;;;;2519167;54;20966;-85
2022/05/26 03:08:25;;;;;;;0.68;0.22;;;17.30;45.70;;;;;;2287160;55;20958;-84
2022/05/26 03:10:52;;;;;;;0.40;0.20;;;17.20;45.20;;;;;;2519924;54;21009;-85
2022/05/26 03:13:18;;;;;;;0.65;0.10;;;17.20;45.40;;;;;;2287847;55;20994;-85
2022/05/26 03:15:45;;;;;;;0.68;0.30;;;17.20;45.50;;;;;;2287738;55;21041;-85
2022/05/26 03:18:11;;;;;;;0.65;0.30;;;17.20;45.50;;;;;;2291480;55;21129;-84
2022/05/26 03:20:38;;;;;;;1.05;0.30;;;17.20;45.60;;;;;;2521372;54;21320;-85
2022/05/26 03:23:05;;;;;;;0.52;0.20;;;17.20;45.60;;;;;;2288455;55;20950;-84
2022/05/26 03:25:31;;;;;;;2.00;0.32;;;17.20;45.70;;;;;;2522110;54;20998;-85
2022/05/26 03:27:59;;;;;;;0.77;0.30;;;17.20;45.70;;;;;;2534203;54;21061;-84
2022/05/26 03:30:25;;;;;;;1.23;0.37;;;17.20;45.70;;;;;;2288423;55;21523;-85
2022/05/26 03:32:51;;;;;;;0.70;0.30;;;17.20;45.80;;;;;;2521939;54;20974;-84
2022/05/26 03:40:56;;;;;;;1.30;0.40;;;17.10;45.70;;;;;;2520824;54;21000;-84
2022/05/26 03:43:32;;;;;;;1.02;0.40;;;17.10;45.70;;;;;;2522150;54;21460;-85
2022/05/26 03:45:59;;;;;;;0.77;0.28;;;17.00;45.70;;;;;;2522639;54;20918;-84
2022/05/26 03:48:25;;;;;;;0.88;0.28;;;17.00;45.70;;;;;;2522063;54;21305;-85
2022/05/26 03:50:52;;;;;;;1.17;0.40;;;17.00;45.70;;;;;;2522082;54;20999;-84
2022/05/26 03:53:18;;;;;;;1.45;0.40;;;16.90;45.80;;;;;;2521453;54;20999;-85
2022/05/26 03:55:44;;;;;;;2.00;0.65;;;16.90;45.90;;;;;;2520497;54;20970;-84
2022/05/26 03:58:11;;;;;;;1.27;0.40;;;16.90;45.90;;;;;;2521515;54;20906;-84
2022/05/26 04:00:37;;;;;;;1.52;0.45;;;16.90;45.90;;;;;;2521830;54;21255;-85
2022/05/26 04:03:03;;;;;;;0.80;0.30;;;16.80;45.90;;;;;;2522150;54;20931;-84
2022/05/26 04:05:30;;;;;;;1.73;0.40;;;16.90;46.10;;;;;;2520716;54;20930;-84
2022/05/26 04:07:56;;;;;;;1.67;0.50;;;16.80;46.10;;;;;;2521262;54;21816;-84
2022/05/26 04:10:22;;;;;;;0.60;0.20;;;16.70;46.00;;;;;;2521564;54;20975;-85
2022/05/26 04:12:48;;;;;;;1.17;0.30;;;16.70;46.00;;;;;;2522025;54;21616;-85
2022/05/26 04:15:15;;;;;;;1.20;0.40;;;16.60;46.10;;;;;;2518429;54;20974;-86
2022/05/26 04:17:41;;;;;;;2.60;0.40;;;16.60;46.20;;;;;;2519730;54;21049;-85
2022/05/26 04:20:09;;;;;;;1.00;0.35;;;16.60;46.30;;;;;;2518956;54;20962;-86
2022/05/26 04:22:36;;;;;;;0.75;0.45;;;16.60;46.40;;;;;;2518773;54;21009;-86
2022/05/26 04:25:02;;;;;;;0.68;0.30;;;16.60;46.40;;;;;;2519796;54;21034;-85
2022/05/26 04:27:30;;;;;;;1.50;0.40;;;16.60;46.50;;;;;;2290547;55;21920;-86
2022/05/26 04:29:57;;;;;;;1.00;0.30;;;16.60;46.60;;;;;;2520437;54;21025;-84
2022/05/26 04:32:23;;;;;;;0.65;0.30;;;16.60;46.60;;;;;;2520004;54;20981;-84
2022/05/26 04:34:51;;;;;;;0.95;0.30;;;16.50;46.60;;;;;;2287518;55;20982;-84
2022/05/26 04:37:21;;;;;;;1.52;0.40;;;16.50;46.70;;;;;;2519037;54;22107;-84
2022/05/26 04:39:48;;;;;;;0.65;0.25;;;16.50;46.80;;;;;;2288265;55;21049;-85
2022/05/26 04:42:14;;;;;;;1.30;0.40;;;16.50;46.70;;;;;;2287892;55;21346;-85
2022/05/26 04:44:42;;;;;;;1.05;0.28;;;16.50;46.80;;;;;;2292197;55;20953;-85
2022/05/26 04:47:08;;;;;;;1.15;0.40;;;16.50;46.90;;;;;;2519585;54;21033;-84
2022/05/26 04:49:37;;;;;;;1.52;0.30;;;16.50;47.00;;;;;;2286826;55;21045;-85
2022/05/26 04:52:05;;;;;;;0.13;0.13;;;16.50;47.00;;;;;;2518697;54;21009;-85
2022/05/26 04:54:32;;;;;;;0.40;0.30;;;16.50;47.10;;;;;;2290207;55;21034;-86
2022/05/26 04:56:58;;;;;;;2.47;0.35;;;16.50;47.10;;;;;;2527120;54;21523;-84
2022/05/26 04:59:25;;;;;;;0.82;0.30;;;16.60;47.20;;;;;;2528648;54;21062;-84
2022/05/26 05:01:51;;;;;;;0.65;0.30;;;16.60;47.80;;;;;;2517893;54;20958;-85
2022/05/26 05:04:18;;;;;;;0.62;0.30;;;16.60;47.30;;;;;;2518667;54;20974;-85
2022/05/26 05:06:44;;;;;;;1.48;0.50;;;16.60;47.40;;;;;;2519453;54;20956;-85
2022/05/26 05:09:11;;;;;;;0.90;0.40;;;16.70;47.50;;;;;;2532166;54;21005;-83
2022/05/26 05:11:37;;;;;;;0.70;0.30;;;16.70;47.50;;;;;;2519340;54;21413;-85
2022/05/26 05:14:03;;;;;;;1.12;0.30;;;16.70;47.50;;;;;;2518915;54;20993;-85
2022/05/26 05:16:34;;;;;;;0.70;0.20;;;16.80;47.70;;;;;;2519769;54;21859;-85
2022/05/26 05:19:01;;;;;;;0.82;0.40;;;16.80;47.80;;;;;;2289534;55;21029;-85
2022/05/26 05:21:38;;;;;;;1.62;0.40;;;16.80;47.70;;;;;;2521710;54;21455;-85
2022/05/26 05:24:17;;;;;;;1.00;0.35;;;16.90;47.90;;;;;;2522612;54;20950;-85
2022/05/26 05:26:45;;;;;;;2.30;0.40;;;17.00;48.30;;;;;;2294050;55;21624;-84
2022/05/26 05:29:14;;;;;;;0.95;0.40;;;17.00;48.10;;;;;;2521847;54;20982;-85
2022/05/26 05:31:45;;;;;;;1.30;0.40;;;17.10;48.20;;;;;;2293813;55;20933;-85
2022/05/26 05:34:14;;;;;;;0.28;0.20;;;17.20;48.30;;;;;;2297565;55;20966;-86
2022/05/26 05:36:40;;;;;;;1.50;0.45;;;17.30;48.30;;;;;;2301537;55;21031;-85
2022/05/26 05:39:07;;;;;;;1.20;0.40;;;17.40;48.60;;;;;;2293333;55;20986;-85
2022/05/26 05:41:33;;;;;;;1.37;0.50;;;17.50;48.50;;;;;;2291804;55;21023;-85
2022/05/26 05:44:00;;;;;;;1.98;0.45;;;17.60;48.50;;;;;;2292659;55;20938;-85
2022/05/26 05:46:34;;;;;;;0.95;0.40;;;17.70;48.40;;;;;;2288193;55;20922;-86
2022/05/26 05:49:04;;;;;;;1.20;0.40;;;17.80;48.40;;;;;;2289025;55;20910;-85
2022/05/26 05:51:31;;;;;;;2.62;0.40;;;17.90;48.40;;;;;;2521275;54;20942;-85
2022/05/26 05:53:58;;;;;;;0.45;0.30;;;18.00;48.40;;;;;;2288743;55;20906;-85
2022/05/26 05:56:24;;;;;;;1.10;0.30;;;18.10;48.40;;;;;;2520804;54;20918;-85
2022/05/26 05:58:51;;;;;;;0.62;0.30;;;18.20;48.30;;;;;;2288125;55;20942;-86
2022/05/26 06:01:18;;;;;;;2.05;0.50;;;18.30;48.30;;;;;;2288208;55;20946;-85
2022/05/26 06:03:44;;;;;;;2.37;0.60;;;18.40;48.30;;;;;;2521711;54;21414;-84
2022/05/26 06:06:10;;;;;;;4.80;1.65;;;18.50;48.40;;;;;;2288821;55;20958;-84
2022/05/26 06:08:37;;;;;;;5.28;1.60;;;18.60;48.30;;;;;;2520549;54;21007;-88
2022/05/26 06:11:04;;;;;;;3.03;1.05;;;18.70;48.20;;;;;;2288801;55;21981;-85
2022/05/26 06:13:30;;;;;;;2.62;0.80;;;18.80;48.10;;;;;;2288347;55;20989;-85
2022/05/26 06:15:56;;;;;;;1.70;0.50;;;18.90;48.00;;;;;;2519708;54;20994;-85
2022/05/26 06:18:22;;;;;;;2.25;0.70;;;19.00;48.00;;;;;;2520319;54;21456;-88
2022/05/26 06:20:49;;;;;;;1.48;0.40;;;19.00;47.90;;;;;;2520654;54;20946;-84
2022/05/26 06:23:18;;;;;;;2.05;0.47;;;19.10;47.80;;;;;;2520381;54;21002;-84
2022/05/26 06:25:45;;;;;;;1.37;0.60;;;19.20;47.80;;;;;;2519219;54;21026;-85
2022/05/26 06:30:56;;;;;;;1.35;0.47;;;19.30;47.70;;;;;;2521259;54;20921;-85
2022/05/26 06:38:56;;;;;;;2.08;0.50;;;19.50;47.70;;;;;;2288558;55;20926;-85
2022/05/26 06:44:09;;;;;;;1.90;0.70;;;19.60;47.50;;;;;;2521434;54;20907;-85
2022/05/26 06:46:36;;;;;;;1.95;0.52;;;19.70;47.50;;;;;;2520945;54;20945;-85
2022/05/26 06:49:02;;;;;;;1.35;0.40;;;19.80;47.40;;;;;;2288015;55;20945;-85
2022/05/26 06:51:30;;;;;;;1.60;0.50;;;19.90;47.40;;;;;;2520310;54;20950;-85
2022/05/26 06:53:56;;;;;;;1.55;0.52;;;19.90;47.30;;;;;;2289009;55;20926;-85
2022/05/26 06:56:24;;;;;;;1.65;0.50;;;20.00;47.30;;;;;;2520918;54;21101;-85
2022/05/26 06:58:50;;;;;;;2.65;0.77;;;20.00;47.30;;;;;;2520173;54;20926;-85
2022/05/26 07:01:19;;;;;;;3.28;0.60;;;20.10;47.30;;;;;;2520268;54;21033;-85
2022/05/26 07:03:45;;;;;;;1.95;0.50;;;20.10;47.80;;;;;;2288444;55;20957;-85
2022/05/26 07:06:20;;;;;;;0.70;0.40;;;20.20;47.20;;;;;;2520787;54;21248;-84
2022/05/26 07:08:46;;;;;;;1.25;0.40;;;20.30;47.20;;;;;;2288257;55;21824;-85
2022/05/26 07:11:12;;;;;;;2.90;0.55;;;20.40;47.10;;;;;;2519827;54;21959;-85
2022/05/26 07:13:39;;;;;;;1.30;0.40;;;20.40;47.00;;;;;;2521255;54;20946;-85
2022/05/26 07:16:05;;;;;;;2.53;0.45;;;20.50;47.10;;;;;;2292642;55;20949;-85
2022/05/26 07:18:32;;;;;;;1.33;0.30;;;20.60;47.10;;;;;;2280727;55;20946;-85
2022/05/26 07:20:58;;;;;;;2.05;0.50;;;20.70;46.90;;;;;;2289365;55;20970;-85
2022/05/26 07:23:24;;;;;;;2.05;0.60;;;20.70;46.60;;;;;;2288662;55;21784;-85
2022/05/26 07:25:51;;;;;;;0.77;0.30;;;20.80;46.50;;;;;;2520692;54;20926;-85
2022/05/26 07:28:17;;;;;;;1.23;0.35;;;20.80;46.50;;;;;;2520571;54;20974;-85
2022/05/26 07:30:43;;;;;;;0.70;0.37;;;20.90;46.50;;;;;;2521454;54;20902;-85
2022/05/26 07:33:09;;;;;;;1.42;0.50;;;21.00;46.50;;;;;;2289244;55;20962;-86
2022/05/26 07:35:36;;;;;;;0.75;0.30;;;21.00;46.30;;;;;;2521131;54;20910;-85
2022/05/26 07:43:32;;;;;;;2.62;0.40;;;21.20;46.30;;;;;;2288658;55;20941;-85
2022/05/26 07:45:59;;;;;;;1.45;0.45;;;21.20;46.10;;;;;;2521090;54;20930;-85
2022/05/26 07:48:25;;;;;;;1.40;0.40;;;21.30;46.10;;;;;;2519976;54;20942;-85
2022/05/26 07:50:51;;;;;;;1.85;0.52;;;21.30;46.00;;;;;;2520629;54;20938;-84
2022/05/26 07:53:18;;;;;;;1.67;0.40;;;21.40;46.00;;;;;;2520081;54;20966;-85
2022/05/26 07:55:44;;;;;;;1.05;0.50;;;21.40;46.10;;;;;;2288321;55;20942;-83
2022/05/26 07:58:11;;;;;;;1.45;0.50;;;21.50;46.20;;;;;;2518284;54;21445;-83
2022/05/26 08:00:37;;;;;;;1.70;0.50;;;21.50;46.00;;;;;;2519375;54;20994;-84
2022/05/26 08:03:03;;;;;;;2.58;0.40;;;21.60;46.00;;;;;;2519088;54;20927;-84
2022/05/26 08:05:30;;;;;;;1.80;0.50;;;21.70;46.60;;;;;;2288139;55;20930;-84
2022/05/26 08:07:56;;;;;;;1.42;0.43;;;21.70;45.80;;;;;;2519839;54;20954;-85
2022/05/26 08:10:22;;;;;;;1.98;0.60;;;21.70;45.50;;;;;;2520427;54;20986;-83
2022/05/26 08:12:48;;;;;;;1.00;0.30;;;21.80;45.60;;;;;;2520369;54;21373;-83
2022/05/26 08:15:15;;;;;;;0.95;0.30;;;21.80;45.50;;;;;;2524749;54;21015;-83
2022/05/26 08:17:41;;;;;;;1.77;0.52;;;21.80;45.50;;;;;;2519642;54;21551;-84
2022/05/26 08:20:08;;;;;;;1.02;0.75;;;21.80;45.30;;;;;;2304211;55;21933;-84
2022/05/26 08:22:35;;;;;;;3.05;0.52;;;21.90;45.40;;;;;;2521228;54;21837;-84
2022/05/26 08:25:01;;;;;;;0.93;0.40;;;21.90;45.30;;;;;;2518349;54;21022;-86
2022/05/26 08:27:27;;;;;;;1.17;0.40;;;21.90;45.30;;;;;;2285601;55;22069;-85
2022/05/26 08:29:54;;;;;;;1.17;0.50;;;21.90;45.30;;;;;;2518679;54;21060;-86
2022/05/26 08:32:21;;;;;;;0.93;0.40;;;22.00;45.30;;;;;;2518517;54;20958;-85
2022/05/26 08:34:47;;;;;;;2.72;0.40;;;22.00;45.30;;;;;;2519036;54;20954;-85
2022/05/26 08:37:14;;;;;;;1.85;0.60;;;22.10;45.30;;;;;;2519339;54;21109;-85
2022/05/26 08:39:41;;;;;;;1.00;0.40;;;22.10;45.20;;;;;;2521588;54;21867;-84
2022/05/26 08:42:08;;;;;;;1.08;0.50;;;22.10;45.10;;;;;;2521822;54;20926;-84
2022/05/26 08:44:37;;;;;;;1.55;0.52;;;22.20;45.20;;;;;;2520656;54;20961;-84
2022/05/26 08:47:42;;;;;;;0.95;0.30;;;22.20;45.40;;;;;;2518348;54;21005;-84
2022/05/26 08:50:19;;;;;;;1.52;0.35;;;22.30;45.30;;;;;;2286607;55;21049;-83
2022/05/26 08:52:57;;;;;;;2.35;0.43;;;22.30;45.20;;;;;;2290666;55;20993;-82
2022/05/26 08:55:39;;;;;;;2.03;0.60;;;22.40;45.40;;;;;;2519396;54;21247;-82
2022/05/26 08:58:14;;;;;;;2.05;0.60;;;22.40;45.10;;;;;;2520119;54;21034;-82
2022/05/26 09:00:41;;;;;;;1.92;0.50;;;22.50;45.00;;;;;;2519752;54;20978;-82
2022/05/26 09:03:31;;;;;;;2.08;0.60;;;22.50;44.90;;;;;;2519188;54;20966;-83
2022/05/26 09:06:03;;;;;;;1.98;0.50;;;22.60;44.70;;;;;;2518866;54;21025;-83
2022/05/26 09:14:16;;;;;;;2.85;0.50;;;22.70;44.60;;;;;;2296937;55;21046;-82
2022/05/26 09:16:43;;;;;;;1.58;0.60;;;22.70;44.80;;;;;;2279558;55;21034;-84
2022/05/26 09:19:17;;;;;;;2.05;0.50;;;22.80;44.60;;;;;;2516939;54;21840;-84
2022/05/26 09:21:47;;;;;;;2.30;0.50;;;22.80;44.50;;;;;;2286419;55;20989;-84
2022/05/26 09:24:39;;;;;;;1.95;0.60;;;22.80;44.60;;;;;;2291384;55;21355;-82
2022/05/26 09:28:49;;;;;;;1.00;0.40;;;22.90;44.60;;;;;;2287863;55;21009;-83
2022/05/26 09:31:37;;;;;;;1.62;0.57;;;23.00;44.70;;;;;;2519285;54;20982;-85
2022/05/26 09:34:24;;;;;;;1.12;0.40;;;23.10;44.80;;;;;;2517698;54;21104;-85
2022/05/26 09:37:04;;;;;;;4.57;0.45;;;23.20;44.70;;;;;;2287756;55;20989;-85
2022/05/26 09:39:37;;;;;;;1.67;0.60;;;23.20;44.60;;;;;;2286582;55;21006;-84
2022/05/26 09:42:47;;;;;;;1.08;0.32;;;23.30;44.50;;;;;;2287711;55;21904;-85
2022/05/26 09:45:16;;;;;;;1.30;0.50;;;23.40;44.60;;;;;;2518811;54;20966;-84
2022/05/26 09:47:53;;;;;;;1.80;0.47;;;23.50;44.40;;;;;;2290314;56;20998;-86
2022/05/26 09:50:40;;;;;;;2.62;0.50;;;23.50;44.10;;;;;;2520649;54;20981;-86
2022/05/26 09:53:09;;;;;;;1.30;0.40;;;23.60;43.90;;;;;;2520938;54;21464;-85
2022/05/26 09:55:49;;;;;;;2.17;0.40;;;23.60;43.90;;;;;;2288852;55;21813;-82
2022/05/26 09:58:37;;;;;;;2.42;0.55;;;23.60;44.00;;;;;;2520385;54;21423;-85
2022/05/26 10:04:37;;;;;;;1.25;0.50;;;23.60;43.70;;;;;;2293252;55;21464;-83
2022/05/26 10:07:12;;;;;;;1.33;0.50;;;23.60;43.80;;;;;;2520085;54;20922;-82
2022/05/26 10:09:45;;;;;;;2.60;0.70;;;23.70;43.70;;;;;;2519907;54;20977;-83
2022/05/26 10:12:34;;;;;;;;;;;23.70;43.60;;;;;;2524196;54;20929;-85
2022/05/26 10:17:56;;;;;;;0.60;0.30;;;23.60;43.50;;;;;;2291176;55;20121;-86
2022/05/26 10:21:13;;;;;;;1.30;0.45;;;23.60;43.40;;;;;;2294172;55;20978;-85
2022/05/26 10:26:54;;;;;;;0.98;0.40;;;23.60;43.60;;;;;;2289360;55;20919;-83
2022/05/26 10:30:02;;;;;;;1.17;0.40;;;23.50;43.50;;;;;;2283412;56;20966;-83
2022/05/26 10:33:01;;;;;;;0.57;0.28;;;23.50;43.30;;;;;;2291601;55;20922;-85
2022/05/26 10:37:26;;;;;;;1.42;0.50;;;23.50;43.60;;;;;;2519951;54;20927;-85
2022/05/26 10:40:27;;;;;;;2.33;0.40;;;23.50;43.90;;;;;;2290609;55;21833;-83
2022/05/26 10:43:25;;;;;;;0.75;0.30;;;23.60;43.80;;;;;;2520345;54;20962;-85
2022/05/26 10:45:52;;;;;;;1.92;0.55;;;23.60;43.70;;;;;;2519456;55;20954;-84
2022/05/26 10:49:22;;;;;;;1.10;0.30;;;23.60;43.80;;;;;;2291597;55;20989;-84
2022/05/26 10:52:00;;;;;;;1.60;0.50;;;23.70;43.90;;;;;;2520038;54;20922;-85
2022/05/26 10:54:49;;;;;;;1.80;0.65;;;23.80;43.60;;;;;;2520107;54;20994;-83
2022/05/26 10:58:22;;;;;;;1.37;0.43;;;23.80;43.50;;;;;;2518649;54;20961;-83
2022/05/26 11:00:51;;;;;;;1.05;0.50;;;23.80;43.40;;;;;;2518635;54;21354;-81
2022/05/26 11:03:23;;;;;;;2.12;0.50;;;23.90;43.40;;;;;;2233030;55;3293890;-81
2022/05/26 11:05:55;;;;;;;1.92;0.40;;;23.90;43.40;;;;;;2519605;54;20950;-82
2022/05/26 11:08:40;;;;;;;;;;;23.90;43.30;;;;;;2520744;54;20986;-82
2022/05/26 11:11:43;;;;;;;1.40;0.30;;;23.90;43.30;;;;;;2518654;54;20055;-81
2022/05/26 11:17:24;;;;;;;1.85;0.35;;;23.90;43.00;;;;;;2518682;54;20124;-81
2022/05/26 11:20:43;;;;;;;2.53;0.50;;;24.00;42.90;;;;;;2285389;55;21006;-81
2022/05/26 11:23:09;;;;;;;1.08;0.50;;;23.90;42.70;;;;;;2518400;54;21377;-81
2022/05/26 11:25:39;;;;;;;2.53;0.40;;;23.90;42.70;;;;;;2285339;55;20910;-82
2022/05/26 11:28:15;;;;;;;1.37;0.40;;;23.90;42.60;;;;;;2518329;54;20976;-81
2022/05/26 11:37:31;;;;;;;1.42;0.60;;;23.90;42.40;;;;;;2341485;53;21372;-72
2022/05/26 11:40:02;;;;;;;;;;;23.90;42.50;;;;;;2344130;54;21015;-73
2022/05/26 11:43:00;;;;;;;1.67;0.40;;;23.90;42.50;;;;;;2587885;53;20078;-74
2022/05/26 11:45:34;;;;;;;5.90;0.90;;;23.90;42.20;;;;;;2557434;53;20948;-70
2022/05/26 11:48:04;;;;;;;1.65;0.70;;;23.90;42.40;;;;;;2343623;53;21397;-73
2022/05/26 11:51:38;;;;;;;1.02;0.50;;;23.90;42.40;;;;;;2339721;53;20948;-73
2022/05/26 11:54:05;;;;;;;1.08;0.50;;;23.80;42.50;;;;;;2348141;53;20967;-72
2022/05/26 11:56:39;;;;;;;1.52;0.40;;;23.80;42.60;;;;;;2491832;53;21122;-71
2022/05/26 11:59:59;;;;;;;1.42;0.30;;;23.80;42.60;;;;;;2587021;53;20932;-73
2022/05/26 12:02:29;;;;;;;2.87;0.70;;;23.80;42.70;;;;;;2340171;54;20952;-72
2022/05/26 12:04:56;;;;;;;3.42;0.65;;;23.90;43.00;;;;;;2340531;54;21348;-74
2022/05/26 12:07:45;;;;;;;1.15;0.45;;;23.90;43.60;;;;;;2343017;53;21475;-70
2022/05/26 12:10:18;;;;;;;2.20;0.40;;;23.90;42.70;;;;;;2347429;53;20978;-71
2022/05/26 12:12:45;;;;;;;1.50;0.52;;;24.00;42.90;;;;;;2346121;53;20999;-71
2022/05/26 12:15:19;;;;;;;2.08;0.80;;;24.00;42.80;;;;;;2347817;53;21028;-72
2022/05/26 12:17:55;;;;;;;3.10;0.50;;;24.00;42.50;;;;;;2340082;54;20975;-71
2022/05/26 12:20:33;;;;;;;1.70;0.43;;;24.00;42.50;;;;;;2325068;54;21015;-71
2022/05/26 12:23:22;;;;;;;1.37;0.40;;;24.00;42.40;;;;;;2340499;54;20956;-72
2022/05/26 12:26:23;;;;;;;2.17;0.50;;;24.10;43.10;;;;;;2388611;53;21008;-74
2022/05/26 12:28:50;;;;;;;1.12;0.32;;;24.10;42.30;;;;;;2324845;54;21060;-74
2022/05/26 12:31:16;;;;;;;1.02;0.50;;;24.10;42.60;;;;;;2421553;53;21788;-73
2022/05/26 12:33:55;;;;;;;0.93;0.40;;;24.10;42.70;;;;;;2340474;54;21000;-73
2022/05/26 12:36:39;;;;;;;1.95;0.55;;;24.20;42.80;;;;;;2461907;53;20976;-73
2022/05/26 12:42:13;;;;;;;1.85;0.50;;;24.20;42.40;;;;;;2353779;53;20935;-73
2022/05/26 12:46:28;;;;;;;0.93;0.30;;;24.40;42.60;;;;;;2345471;53;21061;-73
2022/05/26 12:49:23;;;;;;;1.73;0.60;;;24.40;42.30;;;;;;2340739;54;20945;-74
2022/05/26 12:52:18;;;;;;;1.30;0.50;;;24.40;42.00;;;;;;2344316;54;21011;-74
2022/05/26 12:54:48;;;;;;;2.45;0.60;;;24.50;42.20;;;;;;2587841;53;20948;-73
2022/05/26 12:57:17;;;;;;;2.60;0.50;;;24.50;42.40;;;;;;2340408;54;21074;-73
2022/05/26 12:59:43;;;;;;;2.55;0.50;;;24.50;42.30;;;;;;2340254;53;21496;-71
2022/05/26 13:02:15;;;;;;;1.42;0.47;;;24.60;42.30;;;;;;2343924;53;20936;-73
2022/05/26 13:04:41;;;;;;;1.60;0.50;;;24.60;41.90;;;;;;2340451;54;20932;-77
2022/05/26 13:07:07;;;;;;;1.73;0.50;;;24.60;41.90;;;;;;2431575;53;20979;-73
2022/05/26 13:09:45;;;;;;;1.42;0.47;;;24.60;41.80;;;;;;2339829;54;20936;-73
2022/05/26 13:12:20;;;;;;;1.60;0.50;;;24.60;41.60;;;;;;2344484;53;21396;-74
2022/05/26 13:14:48;;;;;;;0.55;0.30;;;24.60;41.50;;;;;;2460382;53;21452;-73
2022/05/26 13:17:23;;;;;;;0.82;0.30;;;24.50;41.60;;;;;;2584920;53;20960;-77
2022/05/26 13:19:51;;;;;;;1.80;0.50;;;24.50;41.90;;;;;;2341213;53;20959;-71
2022/05/26 13:22:21;;;;;;;1.87;0.55;;;24.50;41.80;;;;;;2339723;54;21467;-74
2022/05/26 13:24:52;;;;;;;1.83;0.45;;;24.50;41.80;;;;;;2340295;54;21571;-73
2022/05/26 13:27:19;;;;;;;1.00;0.40;;;24.60;42.00;;;;;;2340295;54;21004;-72
2022/05/26 13:29:46;;;;;;;1.02;0.40;;;24.60;42.00;;;;;;2340230;54;20944;-76
2022/05/26 13:35:00;;;;;;;1.17;0.30;;;24.70;42.30;;;;;;2326597;54;21027;-74
2022/05/26 13:37:28;;;;;;;0.47;0.30;;;24.80;42.50;;;;;;2441869;53;21393;-73
2022/05/26 13:40:18;;;;;;;1.65;0.40;;;24.80;42.40;;;;;;2346485;53;20920;-73
2022/05/26 13:43:12;;;;;;;0.32;0.30;;;25.00;42.50;;;;;;2340011;54;20999;-73
2022/05/26 13:45:41;;;;;;;1.98;0.43;;;25.10;42.30;;;;;;2339381;54;21379;-75
2022/05/26 13:54:59;;;;;;;1.15;0.40;;;25.20;42.40;;;;;;2340069;53;20976;-73
2022/05/26 13:57:48;;;;;;;1.10;0.40;;;25.50;41.60;;;;;;2339196;53;20916;-74
2022/05/26 14:00:36;;;;;;;0.70;0.30;;;25.50;41.00;;;;;;2484228;53;20972;-73
2022/05/26 14:03:23;;;;;;;1.10;0.30;;;25.50;40.90;;;;;;2341020;53;21405;-72
2022/05/26 14:06:24;;;;;;;0.75;0.40;;;25.50;40.80;;;;;;2347340;53;20915;-72
2022/05/26 14:08:54;;;;;;;1.80;0.47;;;25.40;40.80;;;;;;2586042;53;21770;-73
2022/05/26 14:11:38;;;;;;;0.90;0.30;;;25.30;40.90;;;;;;2346829;53;20919;-72
2022/05/26 14:14:43;;;;;;;1.05;0.30;;;25.30;40.80;;;;;;2344861;53;21032;-73
2022/05/26 14:17:23;;;;;;;0.25;0.20;;;25.20;40.90;;;;;;2341382;53;21035;-73
2022/05/26 14:19:49;;;;;;;1.62;0.43;;;25.20;41.10;;;;;;2343769;54;20969;-73
2022/05/26 14:22:23;;;;;;;1.20;0.40;;;25.20;41.20;;;;;;2585738;53;20936;-73
2022/05/26 14:24:49;;;;;;;1.45;0.47;;;25.20;41.30;;;;;;2340736;54;21003;-73
2022/05/26 14:27:21;;;;;;;1.42;0.50;;;25.20;41.40;;;;;;2341597;54;21507;-72
2022/05/26 14:29:52;;;;;;;0.65;0.30;;;25.20;41.40;;;;;;2586594;53;20948;-73
2022/05/26 14:32:27;;;;;;;1.33;0.40;;;25.20;41.40;;;;;;2346811;53;21392;-73
2022/05/26 14:35:16;;;;;;;1.33;0.30;;;25.30;41.10;;;;;;2343015;53;21015;-73
2022/05/26 14:37:44;;;;;;;1.05;0.37;;;25.30;41.00;;;;;;2345314;53;20926;-74
2022/05/26 14:40:11;;;;;;;1.17;0.32;;;25.30;41.30;;;;;;2340255;53;21432;-74
2022/05/26 14:42:40;;;;;;;0.95;0.40;;;25.40;41.60;;;;;;2340755;53;20927;-74
2022/05/26 14:45:09;;;;;;;1.23;0.40;;;25.50;41.70;;;;;;2365022;53;20994;-73
2022/05/26 14:47:36;;;;;;;1.15;0.32;;;25.50;41.80;;;;;;2341166;53;21031;-73
2022/05/26 14:50:02;;;;;;;0.85;0.30;;;25.60;41.80;;;;;;2343408;54;21331;-73
2022/05/26 14:52:29;;;;;;;1.33;0.40;;;25.70;41.90;;;;;;2346889;53;20947;-73